createdAt,value
2018-04-15T00:00:11.017Z,28.6
2018-04-15T00:01:01.376Z,28.6
2018-04-15T00:01:51.728Z,28.6
2018-04-15T00:02:41.198Z,28.7
2018-04-15T00:03:31.579Z,28.7
2018-04-15T00:04:21.340Z,28.7
2018-04-15T00:05:11.965Z,28.6
2018-04-15T00:06:01.446Z,28.6
2018-04-15T00:06:51.492Z,28.6
2018-04-15T00:07:41.630Z,28.7
2018-04-15T00:08:32.242Z,28.6
2018-04-15T00:09:21.983Z,28.7
2018-04-15T00:10:12.072Z,28.7
2018-04-15T00:11:02.418Z,28.6
2018-04-15T00:11:51.943Z,28.6
2018-04-15T00:12:42.513Z,28.6
2018-04-15T00:13:32.788Z,28.7
2018-04-15T00:14:22.134Z,28.6
2018-04-15T00:15:12.449Z,28.6
2018-04-15T00:16:02.835Z,28.6
2018-04-15T00:16:52.835Z,28.6
2018-04-15T00:17:42.894Z,28.6
2018-04-15T00:18:32.960Z,28.6
2018-04-15T00:19:22.475Z,28.7
2018-04-15T00:20:12.852Z,28.6
2018-04-15T00:21:02.667Z,28.7
2018-04-15T00:21:52.410Z,28.6
2018-04-15T00:22:42.768Z,28.6
2018-04-15T00:23:32.710Z,28.7
2018-04-15T00:24:22.423Z,28.6
2018-04-15T00:25:12.639Z,28.6
2018-04-15T00:26:03.028Z,28.7
2018-04-15T00:26:53.093Z,28.7
2018-04-15T00:27:43.330Z,28.6
2018-04-15T00:28:33.468Z,28.7
2018-04-15T00:29:23.845Z,28.7
2018-04-15T00:30:13.310Z,28.7
2018-04-15T00:31:03.932Z,28.7
2018-04-15T00:31:53.441Z,28.7
2018-04-15T00:32:43.475Z,28.7
2018-04-15T00:33:33.356Z,28.7
2018-04-15T00:34:24.208Z,28.6
2018-04-15T00:35:13.463Z,28.6
2018-04-15T00:36:03.595Z,28.6
2018-04-15T00:36:53.039Z,28.7
2018-04-15T00:37:43.690Z,28.7
2018-04-15T00:38:33.174Z,28.6
2018-04-15T00:39:24.140Z,28.7
2018-04-15T00:40:14.142Z,28.6
2018-04-15T00:41:03.926Z,28.7
2018-04-15T00:41:53.819Z,28.7
2018-04-15T00:42:44.834Z,28.6
2018-04-15T00:43:34.892Z,28.7
2018-04-15T00:44:24.214Z,28.7
2018-04-15T00:45:14.994Z,28.7
2018-04-15T00:46:04.790Z,28.7
2018-04-15T00:46:55.116Z,28.7
2018-04-15T00:47:45.197Z,28.7
2018-04-15T00:48:34.983Z,28.7
2018-04-15T00:49:25.055Z,28.7
2018-04-15T00:50:15.117Z,28.7
2018-04-15T00:51:05.481Z,28.7
2018-04-15T00:51:55.249Z,28.7
2018-04-15T00:52:45.280Z,28.7
2018-04-15T00:53:35.647Z,28.7
2018-04-15T00:54:25.694Z,28.7
2018-04-15T00:55:14.670Z,28.7
2018-04-15T00:56:05.020Z,28.7
2018-04-15T00:56:55.892Z,28.7
2018-04-15T00:57:44.832Z,28.7
2018-04-15T00:58:36.022Z,28.7
2018-04-15T00:59:25.010Z,28.7
2018-04-15T01:00:16.188Z,28.7
2018-04-15T01:01:05.987Z,28.7
2018-04-15T01:01:55.979Z,28.7
2018-04-15T01:02:46.363Z,28.7
2018-04-15T01:03:36.149Z,28.7
2018-04-15T01:04:26.473Z,28.7
2018-04-15T01:05:16.243Z,28.7
2018-04-15T01:06:06.618Z,28.7
2018-04-15T01:06:56.400Z,28.7
2018-04-15T01:07:46.458Z,28.7
2018-04-15T01:08:36.815Z,28.7
2018-04-15T01:09:26.311Z,28.7
2018-04-15T01:10:16.640Z,28.7
2018-04-15T01:11:06.447Z,28.7
2018-04-15T01:11:56.765Z,28.7
2018-04-15T01:12:46.830Z,28.7
2018-04-15T01:13:37.221Z,28.7
2018-04-15T01:14:26.685Z,28.7
2018-04-15T01:15:17.071Z,28.7
2018-04-15T01:16:06.636Z,28.7
2018-04-15T01:16:56.937Z,28.7
2018-04-15T01:17:46.438Z,28.7
2018-04-15T01:18:36.503Z,28.7
2018-04-15T01:19:26.615Z,28.7
2018-04-15T01:20:16.686Z,28.7
2018-04-15T01:21:06.961Z,28.7
2018-04-15T01:21:57.801Z,28.7
2018-04-15T01:22:47.315Z,28.7
2018-04-15T01:23:37.417Z,28.7
2018-04-15T01:24:27.747Z,28.7
2018-04-15T01:25:18.150Z,28.7
2018-04-15T01:26:07.902Z,28.7
2018-04-15T01:26:58.219Z,28.7
2018-04-15T01:27:47.686Z,28.7
2018-04-15T01:28:38.307Z,28.7
2018-04-15T01:29:28.381Z,28.7
2018-04-15T01:30:17.920Z,28.7
2018-04-15T01:31:07.982Z,28.7
2018-04-15T01:31:58.560Z,28.7
2018-04-15T01:32:48.390Z,28.7
2018-04-15T01:33:37.630Z,28.7
2018-04-15T01:34:27.683Z,28.7
2018-04-15T01:35:18.597Z,28.7
2018-04-15T01:36:08.986Z,28.7
2018-04-15T01:36:58.705Z,28.7
2018-04-15T01:37:48.771Z,28.7
2018-04-15T01:38:38.272Z,28.7
2018-04-15T01:39:28.327Z,28.7
2018-04-15T01:40:19.188Z,28.7
2018-04-15T01:41:09.295Z,28.7
2018-04-15T01:41:58.810Z,28.7
2018-04-15T01:42:49.128Z,28.7
2018-04-15T01:43:38.934Z,28.7
2018-04-15T01:44:29.303Z,28.7
2018-04-15T01:45:19.076Z,28.7
2018-04-15T01:46:09.133Z,28.7
2018-04-15T01:46:59.183Z,28.7
2018-04-15T01:47:49.546Z,28.7
2018-04-15T01:48:39.291Z,28.7
2018-04-15T01:49:29.926Z,28.7
2018-04-15T01:50:18.886Z,28.7
2018-04-15T01:51:09.240Z,28.7
2018-04-15T01:51:59.558Z,28.7
2018-04-15T01:52:49.913Z,28.7
2018-04-15T01:53:39.501Z,28.7
2018-04-15T01:54:30.035Z,28.7
2018-04-15T01:55:20.120Z,28.7
2018-04-15T01:56:09.621Z,28.7
2018-04-15T01:57:00.512Z,28.7
2018-04-15T01:57:50.550Z,28.7
2018-04-15T01:58:40.067Z,28.7
2018-04-15T01:59:29.825Z,28.7
2018-04-15T02:00:20.756Z,28.7
2018-04-15T02:01:10.564Z,28.7
2018-04-15T02:02:00.449Z,28.7
2018-04-15T02:02:50.457Z,28.8
2018-04-15T02:03:39.945Z,28.7
2018-04-15T02:04:30.308Z,28.7
2018-04-15T02:05:20.344Z,28.8
2018-04-15T02:06:10.404Z,28.7
2018-04-15T02:07:00.500Z,28.8
2018-04-15T02:07:50.574Z,28.7
2018-04-15T02:08:40.925Z,28.7
2018-04-15T02:09:30.675Z,28.7
2018-04-15T02:10:21.205Z,28.7
2018-04-15T02:11:11.581Z,28.7
2018-04-15T02:12:00.818Z,28.8
2018-04-15T02:12:51.416Z,28.7
2018-04-15T02:13:41.227Z,28.7
2018-04-15T02:14:31.633Z,28.7
2018-04-15T02:15:20.777Z,28.7
2018-04-15T02:16:11.932Z,28.8
2018-04-15T02:17:01.733Z,28.7
2018-04-15T02:17:51.244Z,28.7
2018-04-15T02:18:41.879Z,28.8
2018-04-15T02:19:31.390Z,28.7
2018-04-15T02:20:22.020Z,28.8
2018-04-15T02:21:11.538Z,28.7
2018-04-15T02:22:01.584Z,28.7
2018-04-15T02:22:52.501Z,28.8
2018-04-15T02:23:42.512Z,28.7
2018-04-15T02:24:32.336Z,28.8
2018-04-15T02:25:22.128Z,28.7
2018-04-15T02:26:12.738Z,28.8
2018-04-15T02:27:02.774Z,28.7
2018-04-15T02:27:52.291Z,28.8
2018-04-15T02:28:42.885Z,28.8
2018-04-15T02:29:32.676Z,28.7
2018-04-15T02:30:22.501Z,28.7
2018-04-15T02:31:12.822Z,28.7
2018-04-15T02:32:02.643Z,28.8
2018-04-15T02:32:53.242Z,28.7
2018-04-15T02:33:43.056Z,28.7
2018-04-15T02:34:33.382Z,28.8
2018-04-15T02:35:22.878Z,28.7
2018-04-15T02:36:13.250Z,28.7
2018-04-15T02:37:03.297Z,28.7
2018-04-15T02:37:53.073Z,28.7
2018-04-15T02:38:43.740Z,28.8
2018-04-15T02:39:32.648Z,28.8
2018-04-15T02:40:23.896Z,28.8
2018-04-15T02:41:13.309Z,28.8
2018-04-15T02:42:03.122Z,28.8
2018-04-15T02:42:53.746Z,28.8
2018-04-15T02:43:43.527Z,28.8
2018-04-15T02:44:33.862Z,28.8
2018-04-15T02:45:23.958Z,28.8
2018-04-15T02:46:13.734Z,28.8
2018-04-15T02:47:04.061Z,28.8
2018-04-15T02:47:53.877Z,28.7
2018-04-15T02:48:44.471Z,28.8
2018-04-15T02:49:33.418Z,28.8
2018-04-15T02:50:24.311Z,28.8
2018-04-15T02:51:14.650Z,28.8
2018-04-15T02:52:04.437Z,28.8
2018-04-15T02:52:53.932Z,28.8
2018-04-15T02:53:44.026Z,28.8
2018-04-15T02:54:34.609Z,28.8
2018-04-15T02:55:25.000Z,28.8
2018-04-15T02:56:14.468Z,28.8
2018-04-15T02:57:04.826Z,28.8
2018-04-15T02:57:54.590Z,28.8
2018-04-15T02:58:45.254Z,28.8
2018-04-15T02:59:34.707Z,28.8
2018-04-15T03:00:24.800Z,28.8
2018-04-15T03:01:15.424Z,28.8
2018-04-15T03:02:05.207Z,28.8
2018-04-15T03:02:55.305Z,28.8
2018-04-15T03:03:45.321Z,28.8
2018-04-15T03:04:34.556Z,28.8
2018-04-15T03:05:25.740Z,28.8
2018-04-15T03:06:15.807Z,28.8
2018-04-15T03:07:05.003Z,28.8
2018-04-15T03:07:55.915Z,28.8
2018-04-15T03:08:45.713Z,28.8
2018-04-15T03:09:36.020Z,28.8
2018-04-15T03:10:26.115Z,28.8
2018-04-15T03:11:15.619Z,28.8
2018-04-15T03:12:05.452Z,28.8
2018-04-15T03:12:56.271Z,28.8
2018-04-15T03:13:45.546Z,28.8
2018-04-15T03:14:36.140Z,28.8
2018-04-15T03:15:26.186Z,28.8
2018-04-15T03:16:16.244Z,28.8
2018-04-15T03:17:06.609Z,28.8
2018-04-15T03:17:56.113Z,28.8
2018-04-15T03:18:46.492Z,28.8
2018-04-15T03:19:36.597Z,28.8
2018-04-15T03:20:26.883Z,28.8
2018-04-15T03:21:16.388Z,28.8
2018-04-15T03:22:06.755Z,28.8
2018-04-15T03:22:56.486Z,28.8
2018-04-15T03:23:47.138Z,28.8
2018-04-15T03:24:37.186Z,28.8
2018-04-15T03:25:27.463Z,28.8
2018-04-15T03:26:17.044Z,28.8
2018-04-15T03:27:07.102Z,28.8
2018-04-15T03:27:56.888Z,28.8
2018-04-15T03:28:47.548Z,28.8
2018-04-15T03:29:37.006Z,28.8
2018-04-15T03:30:27.425Z,28.8
2018-04-15T03:31:17.129Z,28.8
2018-04-15T03:32:07.243Z,28.8
2018-04-15T03:32:57.083Z,28.8
2018-04-15T03:33:47.919Z,28.8
2018-04-15T03:34:37.375Z,28.8
2018-04-15T03:35:27.463Z,28.8
2018-04-15T03:36:17.825Z,28.8
2018-04-15T03:37:08.135Z,28.8
2018-04-15T03:37:57.653Z,28.8
2018-04-15T03:38:47.953Z,28.8
2018-04-15T03:39:38.514Z,28.8
2018-04-15T03:40:28.107Z,28.8
2018-04-15T03:41:17.630Z,28.8
2018-04-15T03:42:08.534Z,28.8
2018-04-15T03:42:58.596Z,28.8
2018-04-15T03:43:48.390Z,28.8
2018-04-15T03:44:38.444Z,28.8
2018-04-15T03:45:27.947Z,28.8
2018-04-15T03:46:18.231Z,28.8
2018-04-15T03:47:08.347Z,28.8
2018-04-15T03:47:58.407Z,28.8
2018-04-15T03:48:47.914Z,28.8
2018-04-15T03:49:38.812Z,28.8
2018-04-15T03:50:28.871Z,28.8
2018-04-15T03:51:18.682Z,28.8
2018-04-15T03:52:09.019Z,28.8
2018-04-15T03:52:59.346Z,28.8
2018-04-15T03:53:49.101Z,28.8
2018-04-15T03:54:39.217Z,28.8
2018-04-15T03:55:28.175Z,28.8
2018-04-15T03:56:19.299Z,28.8
2018-04-15T03:57:09.391Z,28.8
2018-04-15T03:57:58.901Z,28.8
2018-04-15T03:58:49.526Z,28.8
2018-04-15T03:59:39.293Z,28.8
2018-04-15T04:00:29.934Z,28.8
2018-04-15T04:01:19.707Z,28.8
2018-04-15T04:02:09.859Z,28.8
2018-04-15T04:02:59.826Z,28.8
2018-04-15T04:03:49.902Z,28.8
2018-04-15T04:04:39.672Z,28.8
2018-04-15T04:05:30.296Z,28.8
2018-04-15T04:06:20.064Z,28.8
2018-04-15T04:07:09.900Z,28.8
2018-04-15T04:08:00.223Z,28.8
2018-04-15T04:08:49.698Z,28.8
2018-04-15T04:09:40.620Z,28.8
2018-04-15T04:10:30.703Z,28.8
2018-04-15T04:11:20.447Z,28.8
2018-04-15T04:12:10.788Z,28.8
2018-04-15T04:13:00.304Z,28.8
2018-04-15T04:13:50.629Z,28.8
2018-04-15T04:14:40.443Z,28.8
2018-04-15T04:15:30.209Z,28.8
2018-04-15T04:16:20.288Z,28.8
2018-04-15T04:17:10.643Z,28.8
2018-04-15T04:18:00.993Z,28.8
2018-04-15T04:18:50.747Z,28.8
2018-04-15T04:19:41.158Z,28.8
2018-04-15T04:20:31.809Z,28.8
2018-04-15T04:21:20.947Z,28.8
2018-04-15T04:22:11.559Z,28.8
2018-04-15T04:23:01.658Z,28.8
2018-04-15T04:23:51.415Z,28.8
2018-04-15T04:24:41.737Z,28.8
2018-04-15T04:25:31.550Z,28.8
2018-04-15T04:26:21.870Z,28.8
2018-04-15T04:27:11.390Z,28.8
2018-04-15T04:28:01.463Z,28.8
2018-04-15T04:28:51.242Z,28.8
2018-04-15T04:29:42.148Z,28.8
2018-04-15T04:30:31.927Z,28.8
2018-04-15T04:31:22.296Z,28.8
2018-04-15T04:32:12.079Z,28.8
2018-04-15T04:33:02.192Z,28.8
2018-04-15T04:33:52.458Z,28.8
2018-04-15T04:34:41.707Z,28.8
2018-04-15T04:35:32.596Z,28.8
2018-04-15T04:36:22.367Z,28.8
2018-04-15T04:37:12.186Z,28.8
2018-04-15T04:38:02.234Z,28.8
2018-04-15T04:38:52.016Z,28.8
2018-04-15T04:39:42.838Z,28.8
2018-04-15T04:40:32.696Z,28.8
2018-04-15T04:41:22.767Z,28.8
2018-04-15T04:42:12.522Z,28.8
2018-04-15T04:43:03.179Z,28.8
2018-04-15T04:43:52.369Z,28.8
2018-04-15T04:44:42.793Z,28.8
2018-04-15T04:45:32.534Z,28.8
2018-04-15T04:46:23.449Z,28.8
2018-04-15T04:47:13.487Z,28.8
2018-04-15T04:48:03.539Z,28.8
2018-04-15T04:48:53.346Z,28.8
2018-04-15T04:49:43.165Z,28.8
2018-04-15T04:50:33.723Z,28.8
2018-04-15T04:51:23.248Z,28.8
2018-04-15T04:52:13.926Z,28.8
2018-04-15T04:53:03.093Z,28.8
2018-04-15T04:53:53.154Z,28.8
2018-04-15T04:54:43.803Z,28.8
2018-04-15T04:55:34.111Z,28.8
2018-04-15T04:56:23.924Z,28.8
2018-04-15T04:57:14.233Z,28.6
2018-04-15T04:58:04.295Z,28.5
2018-04-15T04:58:54.428Z,28.4
2018-04-15T04:59:44.134Z,28.3
2018-04-15T05:00:33.957Z,28.1
2018-04-15T05:01:24.297Z,27.9
2018-04-15T05:02:14.618Z,27.9
2018-04-15T05:03:04.127Z,27.8
2018-04-15T05:03:54.657Z,27.6
2018-04-15T05:04:44.592Z,27.5
2018-04-15T05:05:34.884Z,27.4
2018-04-15T05:06:24.932Z,27.3
2018-04-15T05:07:14.735Z,27.3
2018-04-15T05:08:03.977Z,27.1
2018-04-15T05:08:54.619Z,27.1
2018-04-15T05:09:44.404Z,27
2018-04-15T05:10:34.901Z,26.9
2018-04-15T05:11:24.364Z,26.9
2018-04-15T05:12:14.142Z,26.8
2018-04-15T05:13:05.219Z,26.8
2018-04-15T05:13:55.239Z,26.8
2018-04-15T05:14:45.019Z,26.7
2018-04-15T05:15:35.192Z,26.7
2018-04-15T05:16:25.704Z,26.6
2018-04-15T05:17:16.076Z,26.6
2018-04-15T05:18:05.029Z,26.6
2018-04-15T05:18:55.379Z,26.6
2018-04-15T05:19:44.618Z,26.6
2018-04-15T05:20:35.465Z,26.6
2018-04-15T05:21:25.799Z,26.5
2018-04-15T05:22:15.340Z,26.5
2018-04-15T05:23:44.486Z,26.4
2018-04-15T05:24:34.487Z,26.4
2018-04-15T05:25:24.841Z,26.4
2018-04-15T05:26:14.116Z,26.4
2018-04-15T05:27:04.969Z,26.4
2018-04-15T05:27:54.751Z,26.4
2018-04-15T05:28:45.105Z,26.3
2018-04-15T05:29:35.183Z,26.3
2018-04-15T05:30:24.944Z,26.1
2018-04-15T05:31:14.484Z,26.1
2018-04-15T05:32:05.063Z,25.9
2018-04-15T05:32:55.151Z,25.9
2018-04-15T05:33:45.194Z,25.8
2018-04-15T05:34:35.000Z,25.8
2018-04-15T05:35:25.594Z,25.8
2018-04-15T05:36:15.638Z,25.7
2018-04-15T05:37:05.162Z,25.6
2018-04-15T05:37:55.774Z,25.6
2018-04-15T05:38:45.283Z,25.6
2018-04-15T05:39:35.650Z,25.6
2018-04-15T05:40:25.671Z,25.5
2018-04-15T05:41:16.003Z,25.5
2018-04-15T05:42:05.863Z,25.5
2018-04-15T05:42:56.175Z,25.4
2018-04-15T05:43:46.230Z,25.4
2018-04-15T05:44:36.030Z,25.4
2018-04-15T05:45:26.112Z,25.4
2018-04-15T05:46:15.365Z,25.4
2018-04-15T05:47:05.924Z,25.3
2018-04-15T05:47:55.990Z,25.4
2018-04-15T05:48:46.350Z,25.3
2018-04-15T05:49:36.409Z,25.3
2018-04-15T05:50:25.910Z,25.3
2018-04-15T05:51:15.934Z,25.3
2018-04-15T05:52:06.045Z,25.3
2018-04-15T05:52:56.355Z,25.3
2018-04-15T05:53:46.985Z,25.3
2018-04-15T05:54:36.469Z,25.3
2018-04-15T05:55:26.555Z,25.2
2018-04-15T05:56:15.889Z,25.1
2018-04-15T05:57:06.414Z,25.1
2018-04-15T05:57:57.361Z,25
2018-04-15T05:58:47.432Z,24.9
2018-04-15T05:59:37.555Z,24.9
2018-04-15T06:00:27.214Z,24.8
2018-04-15T06:01:17.053Z,24.7
2018-04-15T06:02:07.326Z,24.6
2018-04-15T06:02:57.166Z,24.6
2018-04-15T06:03:47.470Z,24.5
2018-04-15T06:04:37.822Z,28.4
2018-04-15T06:05:27.601Z,33.1
2018-04-15T06:06:17.095Z,35.1
2018-04-15T06:07:07.737Z,36
2018-04-15T06:07:57.518Z,34.4
2018-04-15T06:08:48.106Z,32.3
2018-04-15T06:09:37.628Z,31
2018-04-15T06:10:27.721Z,30.3
2018-04-15T06:11:18.080Z,29.8
2018-04-15T06:12:08.084Z,29.4
2018-04-15T06:12:57.910Z,29.1
2018-04-15T06:13:48.523Z,28.8
2018-04-15T06:14:37.761Z,28.5
2018-04-15T06:15:28.623Z,28.3
2018-04-15T06:16:18.400Z,28
2018-04-15T06:17:58.293Z,27.6
2018-04-15T06:18:48.949Z,27.4
2018-04-15T06:19:38.670Z,27.3
2018-04-15T06:20:28.477Z,27.1
2018-04-15T06:21:18.540Z,26.9
2018-04-15T06:22:09.141Z,31.8
2018-04-15T06:22:58.918Z,34.4
2018-04-15T06:23:49.008Z,36.4
2018-04-15T06:24:39.178Z,37.1
2018-04-15T06:25:29.433Z,36.9
2018-04-15T06:26:19.225Z,36.7
2018-04-15T06:27:08.395Z,36.8
2018-04-15T06:27:58.727Z,36.9
2018-04-15T06:28:49.415Z,37.1
2018-04-15T06:29:39.152Z,37.3
2018-04-15T06:30:29.339Z,37.4
2018-04-15T06:31:19.593Z,37.5
2018-04-15T06:32:09.923Z,37.6
2018-04-15T06:32:59.490Z,37.6
2018-04-15T06:33:49.786Z,37.8
2018-04-15T06:34:39.624Z,37.9
2018-04-15T06:35:29.599Z,38
2018-04-15T06:36:19.975Z,38.1
2018-04-15T06:37:09.752Z,38.2
2018-04-15T06:37:59.787Z,38.2
2018-04-15T06:38:49.655Z,38.3
2018-04-15T06:39:40.101Z,38.3
2018-04-15T06:40:30.281Z,38.3
2018-04-15T06:41:19.787Z,38.4
2018-04-15T06:42:10.157Z,38.4
2018-04-15T06:43:00.476Z,38.6
2018-04-15T06:43:49.679Z,38.6
2018-04-15T06:44:40.619Z,38.7
2018-04-15T06:45:30.361Z,38.8
2018-04-15T06:46:20.744Z,38.9
2018-04-15T06:47:10.481Z,39
2018-04-15T06:48:00.831Z,39.1
2018-04-15T06:48:50.634Z,39.1
2018-04-15T06:49:40.733Z,39.2
2018-04-15T06:50:31.366Z,39.2
2018-04-15T06:51:21.344Z,39.2
2018-04-15T06:52:10.590Z,39.2
2018-04-15T06:53:01.253Z,39.3
2018-04-15T06:53:51.511Z,39.5
2018-04-15T06:54:41.350Z,39.7
2018-04-15T06:55:30.823Z,39.9
2018-04-15T06:56:21.798Z,40.1
2018-04-15T06:57:11.825Z,40.3
2018-04-15T06:58:01.583Z,40.4
2018-04-15T06:58:51.375Z,40.5
2018-04-15T06:59:41.752Z,40.7
2018-04-15T07:00:31.757Z,40.9
2018-04-15T07:01:21.827Z,40.9
2018-04-15T07:02:11.612Z,40.9
2018-04-15T07:03:01.692Z,40.8
2018-04-15T07:03:51.209Z,40.8
2018-04-15T07:04:41.821Z,40.9
2018-04-15T07:05:32.448Z,40.9
2018-04-15T07:06:21.122Z,40.9
2018-04-15T07:07:12.071Z,41.1
2018-04-15T07:08:02.154Z,41.2
2018-04-15T07:08:52.219Z,41.3
2018-04-15T07:09:43.143Z,41.4
2018-04-15T07:10:32.792Z,41.6
2018-04-15T07:11:22.128Z,41.7
2018-04-15T07:12:12.714Z,41.8
2018-04-15T07:13:02.732Z,41.9
2018-04-15T07:13:52.239Z,42.1
2018-04-15T07:14:42.851Z,42.3
2018-04-15T07:15:33.198Z,42.4
2018-04-15T07:16:23.028Z,42.6
2018-04-15T07:17:12.781Z,42.7
2018-04-15T07:18:02.884Z,42.9
2018-04-15T07:18:53.436Z,43
2018-04-15T07:19:43.234Z,43.2
2018-04-15T07:20:32.707Z,43.3
2018-04-15T07:21:23.093Z,43.4
2018-04-15T07:22:12.883Z,43.6
2018-04-15T07:23:03.027Z,43.8
2018-04-15T07:23:53.611Z,43.9
2018-04-15T07:24:43.259Z,44.1
2018-04-15T07:25:33.722Z,44.2
2018-04-15T07:26:24.081Z,44.2
2018-04-15T07:27:14.098Z,44.1
2018-04-15T07:28:03.657Z,44
2018-04-15T07:28:53.980Z,43.9
2018-04-15T07:29:43.451Z,43.9
2018-04-15T07:30:33.895Z,44.1
2018-04-15T07:31:23.881Z,44.3
2018-04-15T07:32:14.213Z,44.4
2018-04-15T07:33:03.432Z,44.5
2018-04-15T07:33:54.068Z,44.6
2018-04-15T07:34:44.429Z,44.8
2018-04-15T07:35:34.157Z,44.9
2018-04-15T07:36:24.469Z,45.1
2018-04-15T07:37:14.832Z,45.3
2018-04-15T07:38:04.638Z,45.4
2018-04-15T07:38:54.243Z,45.5
2018-04-15T07:39:45.088Z,45.6
2018-04-15T07:40:35.130Z,45.6
2018-04-15T07:41:25.225Z,45.8
2018-04-15T07:42:14.690Z,46
2018-04-15T07:43:04.207Z,46.2
2018-04-15T07:43:54.815Z,46.3
2018-04-15T07:44:44.608Z,46.4
2018-04-15T07:45:35.508Z,46.4
2018-04-15T07:46:25.671Z,46.5
2018-04-15T07:47:15.101Z,46.6
2018-04-15T07:48:05.455Z,46.7
2018-04-15T07:48:55.752Z,46.9
2018-04-15T07:49:45.583Z,47.1
2018-04-15T07:50:36.154Z,47.3
2018-04-15T07:51:25.937Z,47.4
2018-04-15T07:52:16.022Z,47.6
2018-04-15T07:53:05.814Z,47.7
2018-04-15T07:53:56.152Z,47.8
2018-04-15T07:54:45.959Z,47.9
2018-04-15T07:55:35.995Z,48
2018-04-15T07:56:26.346Z,47.9
2018-04-15T07:57:16.124Z,47.9
2018-04-15T07:58:05.937Z,47.9
2018-04-15T07:58:56.524Z,48
2018-04-15T07:59:46.332Z,48.1
2018-04-15T08:00:36.399Z,48.2
2018-04-15T08:01:26.715Z,48.3
2018-04-15T08:02:16.591Z,48.2
2018-04-15T08:03:06.309Z,48.3
2018-04-15T08:03:56.908Z,48.2
2018-04-15T08:04:46.987Z,48.3
2018-04-15T08:05:36.487Z,48.3
2018-04-15T08:06:26.844Z,48.3
2018-04-15T08:07:16.347Z,48.3
2018-04-15T08:08:06.734Z,48.3
2018-04-15T08:08:57.035Z,48.3
2018-04-15T08:09:46.861Z,48.3
2018-04-15T08:10:37.437Z,48.3
2018-04-15T08:11:27.214Z,48.3
2018-04-15T08:12:16.711Z,48.5
2018-04-15T08:13:07.639Z,48.6
2018-04-15T08:13:57.720Z,48.8
2018-04-15T08:14:47.211Z,48.8
2018-04-15T08:15:37.820Z,48.9
2018-04-15T08:16:27.611Z,49.1
2018-04-15T08:17:18.201Z,49.3
2018-04-15T08:18:07.743Z,49.4
2018-04-15T08:18:58.085Z,49.4
2018-04-15T08:19:47.402Z,49.5
2018-04-15T08:20:37.982Z,49.5
2018-04-15T08:21:27.784Z,49.6
2018-04-15T08:22:17.765Z,49.6
2018-04-15T08:23:07.276Z,49.8
2018-04-15T08:23:57.905Z,49.8
2018-04-15T08:24:48.531Z,49.9
2018-04-15T08:25:38.615Z,50.1
2018-04-15T08:26:28.648Z,50.2
2018-04-15T08:27:18.465Z,50.3
2018-04-15T08:28:08.843Z,50.4
2018-04-15T08:28:58.868Z,50.6
2018-04-15T08:29:48.075Z,50.6
2018-04-15T08:30:38.969Z,50.7
2018-04-15T08:31:28.742Z,50.8
2018-04-15T08:32:19.099Z,50.9
2018-04-15T08:33:08.684Z,51.1
2018-04-15T08:33:59.053Z,51.2
2018-04-15T08:34:48.849Z,51.4
2018-04-15T08:35:38.804Z,51.6
2018-04-15T08:36:29.042Z,51.7
2018-04-15T08:37:18.914Z,51.8
2018-04-15T08:38:09.539Z,51.8
2018-04-15T08:38:59.042Z,51.8
2018-04-15T08:39:49.672Z,51.9
2018-04-15T08:40:39.483Z,51.9
2018-04-15T08:42:19.411Z,52.1
2018-04-15T08:43:09.147Z,52.3
2018-04-15T08:43:59.732Z,52.4
2018-04-15T08:44:50.069Z,52.6
2018-04-15T08:45:40.167Z,52.8
2018-04-15T08:46:30.197Z,53
2018-04-15T08:47:20.311Z,53.3
2018-04-15T08:48:09.809Z,53.5
2018-04-15T08:49:00.122Z,53.8
2018-04-15T08:49:50.209Z,53.9
2018-04-15T08:50:39.431Z,54.1
2018-04-15T08:51:30.037Z,54.3
2018-04-15T08:52:20.388Z,54.4
2018-04-15T08:53:10.148Z,54.5
2018-04-15T08:54:00.501Z,54.6
2018-04-15T08:54:50.286Z,54.6
2018-04-15T08:55:40.645Z,54.5
2018-04-15T08:56:30.706Z,54.4
2018-04-15T08:57:20.321Z,54.4
2018-04-15T08:58:10.597Z,54.4
2018-04-15T08:59:00.885Z,54.3
2018-04-15T08:59:51.249Z,54.2
2018-04-15T09:00:41.044Z,54.2
2018-04-15T09:01:31.375Z,54.1
2018-04-15T09:02:21.151Z,54.1
2018-04-15T09:03:11.045Z,54.1
2018-04-15T09:04:00.735Z,54
2018-04-15T09:04:51.067Z,53.9
2018-04-15T09:05:41.148Z,53.9
2018-04-15T09:06:30.954Z,53.9
2018-04-15T09:07:21.247Z,53.9
2018-04-15T09:08:11.365Z,53.9
2018-04-15T09:09:01.563Z,53.9
2018-04-15T09:09:52.239Z,53.9
2018-04-15T09:10:41.520Z,53.8
2018-04-15T09:11:31.872Z,53.8
2018-04-15T09:12:21.089Z,53.8
2018-04-15T09:13:11.750Z,53.8
2018-04-15T09:14:01.819Z,53.7
2018-04-15T09:14:52.419Z,53.6
2018-04-15T09:15:41.657Z,53.6
2018-04-15T09:16:32.602Z,53.6
2018-04-15T09:17:22.153Z,53.6
2018-04-15T09:18:13.057Z,53.6
2018-04-15T09:19:02.212Z,53.6
2018-04-15T09:19:52.303Z,53.6
2018-04-15T09:20:41.847Z,53.8
2018-04-15T09:21:32.656Z,53.9
2018-04-15T09:22:22.615Z,54
2018-04-15T09:23:12.429Z,54.1
2018-04-15T09:24:02.606Z,54.2
2018-04-15T09:24:52.364Z,54.3
2018-04-15T09:25:42.706Z,54.3
2018-04-15T09:26:33.401Z,54.4
2018-04-15T09:27:22.819Z,54.4
2018-04-15T09:28:12.921Z,54.3
2018-04-15T09:29:03.258Z,54.3
2018-04-15T09:29:53.284Z,54.3
2018-04-15T09:30:43.061Z,54.3
2018-04-15T09:31:33.243Z,54.2
2018-04-15T09:32:23.511Z,54.1
2018-04-15T09:33:12.983Z,54.1
2018-04-15T09:34:03.887Z,54
2018-04-15T09:34:53.665Z,53.9
2018-04-15T09:35:43.897Z,53.8
2018-04-15T09:36:33.833Z,53.8
2018-04-15T09:37:23.719Z,53.8
2018-04-15T09:38:13.365Z,53.8
2018-04-15T09:39:03.168Z,53.8
2018-04-15T09:39:53.815Z,53.8
2018-04-15T09:40:43.564Z,53.8
2018-04-15T09:41:34.527Z,53.7
2018-04-15T09:42:23.989Z,53.6
2018-04-15T09:43:14.626Z,53.6
2018-04-15T09:44:04.650Z,53.4
2018-04-15T09:44:54.441Z,53.4
2018-04-15T09:45:44.491Z,53.3
2018-04-15T09:46:34.580Z,53.3
2018-04-15T09:47:24.911Z,53.2
2018-04-15T09:48:14.991Z,53.1
2018-04-15T09:49:05.031Z,53
2018-04-15T09:49:54.562Z,52.9
2018-04-15T09:50:44.909Z,52.9
2018-04-15T09:51:34.977Z,52.8
2018-04-15T09:52:24.751Z,52.8
2018-04-15T09:53:14.800Z,52.7
2018-04-15T09:54:05.185Z,52.6
2018-04-15T09:54:55.506Z,52.6
2018-04-15T09:55:45.568Z,52.5
2018-04-15T09:56:35.702Z,52.4
2018-04-15T09:58:14.907Z,52.3
2018-04-15T09:59:04.693Z,52.3
2018-04-15T09:59:55.364Z,52.2
2018-04-15T10:00:45.662Z,52.1
2018-04-15T10:01:35.750Z,52
2018-04-15T10:03:15.891Z,51.9
2018-04-15T10:04:05.951Z,51.8
2018-04-15T10:04:56.009Z,51.8
2018-04-15T10:05:46.085Z,51.7
2018-04-15T10:06:35.705Z,51.6
2018-04-15T10:07:26.510Z,51.5
2018-04-15T10:08:16.567Z,51.4
2018-04-15T10:09:06.017Z,51.4
2018-04-15T10:09:56.406Z,51.3
2018-04-15T10:10:46.472Z,51.3
2018-04-15T10:11:36.779Z,51.2
2018-04-15T10:12:26.377Z,51.2
2018-04-15T10:13:16.940Z,51.1
2018-04-15T10:14:06.957Z,51.1
2018-04-15T10:14:57.056Z,51
2018-04-15T10:15:46.559Z,50.9
2018-04-15T10:16:36.646Z,50.9
2018-04-15T10:17:26.637Z,50.8
2018-04-15T10:18:17.021Z,50.8
2018-04-15T10:19:06.540Z,50.8
2018-04-15T10:19:57.158Z,50.7
2018-04-15T10:20:46.926Z,50.7
2018-04-15T10:21:37.281Z,50.6
2018-04-15T10:22:27.324Z,50.6
2018-04-15T10:23:16.862Z,50.6
2018-04-15T10:24:08.508Z,50.5
2018-04-15T10:24:57.523Z,50.4
2018-04-15T10:25:47.613Z,50.4
2018-04-15T10:26:37.411Z,50.3
2018-04-15T10:27:27.716Z,50.3
2018-04-15T10:28:17.785Z,50.3
2018-04-15T10:29:08.126Z,50.2
2018-04-15T10:29:58.203Z,50.2
2018-04-15T10:30:48.259Z,50.1
2018-04-15T10:31:38.059Z,50.1
2018-04-15T10:32:28.119Z,50.1
2018-04-15T10:33:18.443Z,50.1
2018-04-15T10:34:07.756Z,50.1
2018-04-15T10:34:57.529Z,50
2018-04-15T10:35:48.155Z,49.9
2018-04-15T10:36:38.214Z,49.9
2018-04-15T10:37:28.263Z,49.9
2018-04-15T10:38:18.072Z,49.9
2018-04-15T10:39:08.412Z,49.9
2018-04-15T10:39:58.483Z,49.9
2018-04-15T10:40:47.664Z,49.9
2018-04-15T10:41:38.806Z,49.9
2018-04-15T10:42:28.895Z,49.9
2018-04-15T10:43:19.217Z,50
2018-04-15T10:44:08.996Z,50
2018-04-15T10:44:58.547Z,50.1
2018-04-15T10:45:49.417Z,50.1
2018-04-15T10:46:39.504Z,50.1
2018-04-15T10:47:29.281Z,50.2
2018-04-15T10:48:19.604Z,50.2
2018-04-15T10:49:09.139Z,50.2
2018-04-15T10:49:58.866Z,50.2
2018-04-15T10:50:49.514Z,50.2
2018-04-15T10:51:39.040Z,50.2
2018-04-15T10:52:29.389Z,50.3
2018-04-15T10:53:19.966Z,50.4
2018-04-15T10:54:09.311Z,50.5
2018-04-15T10:55:00.115Z,50.7
2018-04-15T10:55:49.424Z,50.9
2018-04-15T10:56:39.994Z,51
2018-04-15T10:57:29.261Z,51.1
2018-04-15T10:58:19.846Z,51.1
2018-04-15T10:59:10.126Z,51.1
2018-04-15T11:00:00.466Z,51.1
2018-04-15T11:00:50.065Z,51.2
2018-04-15T11:01:40.401Z,51.2
2018-04-15T11:02:30.233Z,51.3
2018-04-15T11:03:19.721Z,51.3
2018-04-15T11:04:10.853Z,51.3
2018-04-15T11:05:00.564Z,51.4
2018-04-15T11:05:50.948Z,51.4
2018-04-15T11:06:40.754Z,51.4
2018-04-15T11:07:30.801Z,51.4
2018-04-15T11:08:20.858Z,51.4
2018-04-15T11:09:10.388Z,51.5
2018-04-15T11:10:01.286Z,51.6
2018-04-15T11:10:50.753Z,51.6
2018-04-15T11:11:40.800Z,51.6